createdAt,value
2022-08-09T00:00:06.500Z,0.00
2022-08-09T00:01:05.173Z,0.00
2022-08-09T00:02:06.147Z,0.00
2022-08-09T00:03:56.931Z,0.00
2022-08-09T00:04:15.159Z,0.00
2022-08-09T00:06:18.098Z,0.00
2022-08-09T00:06:18.272Z,0.00
2022-08-09T00:07:07.660Z,0.00
2022-08-09T00:08:10.101Z,0.00
2022-08-09T00:09:06.025Z,0.00
2022-08-09T00:10:05.000Z,0.00
2022-08-09T00:11:06.025Z,0.00
2022-08-09T00:12:06.096Z,0.00
2022-08-09T00:13:04.991Z,0.00
2022-08-09T00:14:05.952Z,0.00
2022-08-09T00:15:06.669Z,0.00
2022-08-09T00:16:04.932Z,0.00
2022-08-09T00:17:04.932Z,0.00
2022-08-09T00:18:11.254Z,0.00
2022-08-09T00:19:10.442Z,0.00
2022-08-09T00:20:04.895Z,0.00
2022-08-09T00:21:05.211Z,0.00
2022-08-09T00:22:04.882Z,0.00
2022-08-09T00:23:08.437Z,0.00
2022-08-09T00:24:05.848Z,0.00
2022-08-09T00:25:08.565Z,0.00
2022-08-09T00:26:05.842Z,0.00
2022-08-09T00:27:04.870Z,0.00
2022-08-09T00:28:04.806Z,0.00
2022-08-09T00:29:12.407Z,0.00
2022-08-09T00:30:24.543Z,0.00
2022-08-09T00:31:50.457Z,0.00
2022-08-09T00:32:05.759Z,0.00
2022-08-09T00:33:04.775Z,0.00
2022-08-09T00:34:04.767Z,0.00
2022-08-09T00:35:04.738Z,0.00
2022-08-09T00:36:04.732Z,0.00
2022-08-09T00:37:04.738Z,0.00
2022-08-09T00:38:04.710Z,0.00
2022-08-09T00:39:04.819Z,0.00
2022-08-09T00:40:12.597Z,0.00
2022-08-09T00:41:08.183Z,0.00
2022-08-09T00:44:10.306Z,0.00
2022-08-09T00:44:13.639Z,0.00
2022-08-09T00:44:15.218Z,0.00
2022-08-09T00:45:15.948Z,0.00
2022-08-09T00:46:05.637Z,0.00
2022-08-09T00:47:05.855Z,0.00
2022-08-09T00:48:04.603Z,0.00
2022-08-09T00:49:04.596Z,0.00
2022-08-09T00:50:04.574Z,0.00
2022-08-09T00:51:10.385Z,0.00
2022-08-09T00:52:06.135Z,0.00
2022-08-09T00:53:10.223Z,0.00
2022-08-09T00:54:05.554Z,0.00
2022-08-09T00:55:04.533Z,0.00
2022-08-09T00:56:09.826Z,0.00
2022-08-09T00:57:08.942Z,0.00
2022-08-09T00:58:05.838Z,0.00
2022-08-09T00:59:04.506Z,0.00
2022-08-09T01:00:05.342Z,0.00
2022-08-09T01:01:05.525Z,0.00
2022-08-09T01:02:04.457Z,0.00
2022-08-09T01:03:04.432Z,0.00
2022-08-09T01:04:04.445Z,0.00
2022-08-09T01:05:04.423Z,0.00
2022-08-09T01:06:17.677Z,0.00
2022-08-09T01:07:05.395Z,0.00
2022-08-09T01:08:05.385Z,0.00
2022-08-09T01:09:06.021Z,0.00
2022-08-09T01:10:04.661Z,0.00
2022-08-09T01:11:04.395Z,0.00
2022-08-09T01:12:04.352Z,0.00
2022-08-09T01:13:04.338Z,0.00
2022-08-09T01:14:04.365Z,0.00
2022-08-09T01:15:05.722Z,0.00
2022-08-09T01:16:05.313Z,0.00
2022-08-09T01:17:04.297Z,0.00
2022-08-09T01:18:04.283Z,0.00
2022-08-09T01:19:04.933Z,0.00
2022-08-09T01:20:04.278Z,0.00
2022-08-09T01:21:04.243Z,0.00
2022-08-09T01:22:04.225Z,0.00
2022-08-09T01:23:05.215Z,0.00
2022-08-09T01:24:05.334Z,0.00
2022-08-09T01:25:04.238Z,0.00
2022-08-09T01:26:04.195Z,0.00
2022-08-09T01:27:04.182Z,0.00
2022-08-09T01:28:04.166Z,0.00
2022-08-09T01:29:04.186Z,0.00
2022-08-09T01:30:04.149Z,0.00
2022-08-09T01:31:06.274Z,0.00
2022-08-09T01:32:31.067Z,0.00
2022-08-09T01:33:05.129Z,0.00
2022-08-09T01:34:04.128Z,0.00
2022-08-09T01:35:07.271Z,0.00
2022-08-09T01:36:05.103Z,0.00
2022-08-09T01:37:04.077Z,0.00
2022-08-09T01:38:08.393Z,0.00
2022-08-09T01:39:05.106Z,0.00
2022-08-09T01:40:04.079Z,0.00
2022-08-09T01:41:05.866Z,0.00
2022-08-09T01:42:10.762Z,0.00
2022-08-09T01:43:05.019Z,0.00
2022-08-09T01:44:04.004Z,0.00
2022-08-09T01:45:04.011Z,0.00
2022-08-09T01:46:03.974Z,0.00
2022-08-09T01:47:03.971Z,0.00
2022-08-09T01:48:05.935Z,0.00
2022-08-09T01:49:10.411Z,0.00
2022-08-09T01:50:06.558Z,0.00
2022-08-09T01:51:03.943Z,0.00
2022-08-09T01:52:07.110Z,0.00
2022-08-09T01:53:19.649Z,0.00
2022-08-09T01:54:04.901Z,0.00
2022-08-09T01:55:03.884Z,0.00
2022-08-09T01:56:03.875Z,0.00
2022-08-09T01:57:04.006Z,0.00
2022-08-09T01:58:03.890Z,0.00
2022-08-09T01:59:03.854Z,0.00
2022-08-09T02:00:08.957Z,0.00
2022-08-09T02:01:04.837Z,0.00
2022-08-09T02:02:03.874Z,0.00
2022-08-09T02:03:03.817Z,0.00
2022-08-09T02:04:03.809Z,0.00
2022-08-09T02:05:05.527Z,0.00
2022-08-09T02:06:06.899Z,0.00
2022-08-09T02:07:03.754Z,0.00
2022-08-09T02:08:38.849Z,0.00
2022-08-09T02:09:04.733Z,0.00
2022-08-09T02:10:04.066Z,0.00
2022-08-09T02:11:03.716Z,0.00
2022-08-09T02:12:04.697Z,0.00
2022-08-09T02:13:03.694Z,0.00
2022-08-09T02:14:07.582Z,0.00
2022-08-09T02:15:06.448Z,0.00
2022-08-09T02:16:03.664Z,0.00
2022-08-09T02:17:39.793Z,0.00
2022-08-09T02:18:10.373Z,0.00
2022-08-09T02:19:04.651Z,0.00
2022-08-09T02:20:03.641Z,0.00
2022-08-09T02:21:03.601Z,0.00
2022-08-09T02:22:03.625Z,0.00
2022-08-09T02:23:03.590Z,0.00
2022-08-09T02:24:03.612Z,0.00
2022-08-09T02:25:03.576Z,0.00
2022-08-09T02:26:03.561Z,0.00
2022-08-09T02:27:03.545Z,0.00
2022-08-09T02:28:05.178Z,0.00
2022-08-09T02:29:03.566Z,0.00
2022-08-09T02:30:03.516Z,0.00
2022-08-09T02:31:03.495Z,0.00
2022-08-09T02:32:03.515Z,0.00
2022-08-09T02:33:03.484Z,0.00
2022-08-09T02:34:13.316Z,0.00
2022-08-09T02:35:17.562Z,0.00
2022-08-09T02:36:04.591Z,0.00
2022-08-09T02:37:03.455Z,0.00
2022-08-09T02:38:03.448Z,0.00
2022-08-09T02:39:03.483Z,0.00
2022-08-09T02:40:03.546Z,0.00
2022-08-09T02:41:04.399Z,0.00
2022-08-09T02:42:03.392Z,0.00
2022-08-09T02:43:03.377Z,0.00
2022-08-09T02:44:06.493Z,0.00
2022-08-09T02:45:04.347Z,0.00
2022-08-09T02:46:03.348Z,0.00
2022-08-09T02:47:04.222Z,0.00
2022-08-09T02:48:03.312Z,0.00
2022-08-09T02:49:03.319Z,0.00
2022-08-09T02:50:03.340Z,0.00
2022-08-09T02:51:03.291Z,0.00
2022-08-09T02:52:03.712Z,0.00
2022-08-09T02:53:03.731Z,0.00
2022-08-09T02:54:03.270Z,0.00
2022-08-09T02:55:03.400Z,0.00
2022-08-09T02:56:04.238Z,0.00
2022-08-09T02:57:13.665Z,1.00
2022-08-09T02:58:32.723Z,0.00
2022-08-09T02:59:04.245Z,0.00
2022-08-09T03:00:20.630Z,0.00
2022-08-09T03:01:06.075Z,1.00
2022-08-09T03:02:06.472Z,1.00
2022-08-09T03:03:03.165Z,1.00
2022-08-09T03:04:16.710Z,1.00
2022-08-09T03:05:04.123Z,1.00
2022-08-09T03:06:03.134Z,0.00
2022-08-09T03:07:12.213Z,0.00
2022-08-09T03:08:04.071Z,2.00
2022-08-09T03:09:03.081Z,2.00
2022-08-09T03:10:03.038Z,1.00
2022-08-09T03:11:03.040Z,1.00
2022-08-09T03:12:10.598Z,0.00
2022-08-09T03:13:08.644Z,2.00
2022-08-09T03:14:04.011Z,1.00
2022-08-09T03:15:02.984Z,1.00
2022-08-09T03:16:05.993Z,2.00
2022-08-09T03:17:02.976Z,5.00
2022-08-09T03:18:02.954Z,6.00
2022-08-09T03:19:03.967Z,5.00
2022-08-09T03:20:05.272Z,5.00
2022-08-09T03:21:03.913Z,4.00
2022-08-09T03:22:03.385Z,2.00
2022-08-09T03:23:14.601Z,4.00
2022-08-09T03:24:05.156Z,7.00
2022-08-09T03:25:06.594Z,6.00
2022-08-09T03:26:04.747Z,8.00
2022-08-09T03:27:02.857Z,11.00
2022-08-09T03:28:02.857Z,12.00
2022-08-09T03:29:02.850Z,14.00
2022-08-09T03:30:04.484Z,13.00
2022-08-09T03:31:04.449Z,14.00
2022-08-09T03:32:03.955Z,15.00
2022-08-09T03:33:05.822Z,24.00
2022-08-09T03:34:04.010Z,24.00
2022-08-09T03:35:02.928Z,25.00
2022-08-09T03:36:13.804Z,28.00
2022-08-09T03:37:54.364Z,31.00
2022-08-09T03:38:03.736Z,32.00
2022-08-09T03:39:02.859Z,36.00
2022-08-09T03:40:02.789Z,41.00
2022-08-09T03:41:02.815Z,48.00
2022-08-09T03:42:06.018Z,56.00
2022-08-09T03:43:02.705Z,58.00
2022-08-09T03:44:08.189Z,61.00
2022-08-09T03:45:03.678Z,62.00
2022-08-09T03:46:05.126Z,69.00
2022-08-09T03:47:03.627Z,75.00
2022-08-09T03:48:02.627Z,79.00
2022-08-09T03:49:04.307Z,83.00
2022-08-09T03:50:03.607Z,92.00
2022-08-09T03:51:02.590Z,98.00
2022-08-09T03:52:03.654Z,106.00
2022-08-09T03:53:03.154Z,109.00
2022-08-09T03:54:02.563Z,115.00
2022-08-09T03:55:02.547Z,121.00
2022-08-09T03:56:03.538Z,129.00
2022-08-09T03:57:04.588Z,141.00
2022-08-09T03:58:16.397Z,147.00
2022-08-09T03:59:03.511Z,152.00
2022-08-09T04:00:02.499Z,161.00
2022-08-09T04:01:02.490Z,173.00
2022-08-09T04:02:02.501Z,180.00
2022-08-09T04:03:02.474Z,190.00
2022-08-09T04:04:03.867Z,194.00
2022-08-09T04:05:06.344Z,201.00
2022-08-09T04:06:04.399Z,208.00
2022-08-09T04:07:02.423Z,215.00
2022-08-09T04:08:02.440Z,230.00
2022-08-09T04:09:02.414Z,235.00
2022-08-09T04:10:03.392Z,243.00
2022-08-09T04:11:02.384Z,252.00
2022-08-09T04:12:02.637Z,266.00
2022-08-09T04:13:03.910Z,274.00
2022-08-09T04:14:52.861Z,288.00
2022-08-09T04:15:17.028Z,297.00
2022-08-09T04:16:20.494Z,311.00
2022-08-09T04:17:03.391Z,318.00
2022-08-09T04:18:02.319Z,335.00
2022-08-09T04:19:02.294Z,353.00
2022-08-09T04:20:02.570Z,359.00
2022-08-09T04:21:02.266Z,372.00
2022-08-09T04:22:02.255Z,390.00
2022-08-09T04:23:02.281Z,405.00
2022-08-09T04:24:02.235Z,419.00
2022-08-09T04:25:03.027Z,432.00
2022-08-09T04:26:02.216Z,449.00
2022-08-09T04:27:02.196Z,466.00
2022-08-09T04:28:03.652Z,481.00
2022-08-09T04:29:09.595Z,495.00
2022-08-09T04:30:03.186Z,506.00
2022-08-09T04:31:05.793Z,523.00
2022-08-09T04:32:03.159Z,535.00
2022-08-09T04:33:02.158Z,551.00
2022-08-09T04:34:02.144Z,574.00
2022-08-09T04:35:02.110Z,599.00
2022-08-09T04:36:02.109Z,624.00
2022-08-09T04:37:02.096Z,641.00
2022-08-09T04:38:03.700Z,661.00
2022-08-09T04:39:02.188Z,680.00
2022-08-09T04:40:02.229Z,701.00
2022-08-09T04:41:02.050Z,727.00
2022-08-09T04:42:02.775Z,760.00
2022-08-09T04:43:02.046Z,793.00
2022-08-09T04:44:05.906Z,819.00
2022-08-09T04:45:03.021Z,843.00
2022-08-09T04:46:02.023Z,872.00
2022-08-09T04:47:04.340Z,887.00
2022-08-09T04:48:04.225Z,907.00
2022-08-09T04:49:02.992Z,939.00
2022-08-09T04:50:01.951Z,961.00
2022-08-09T04:51:01.961Z,983.00
2022-08-09T04:52:01.946Z,1006.00
2022-08-09T04:53:01.949Z,1030.00
2022-08-09T04:54:01.922Z,1059.00
2022-08-09T04:55:02.025Z,1083.00
2022-08-09T04:56:01.910Z,1119.00
2022-08-09T04:57:03.878Z,1166.00
2022-08-09T04:58:09.669Z,1195.00
2022-08-09T04:59:07.793Z,1224.00
2022-08-09T05:00:02.866Z,1236.00
2022-08-09T05:01:01.856Z,1243.00
2022-08-09T05:02:02.873Z,1243.00
2022-08-09T05:03:12.618Z,1245.00
2022-08-09T05:04:02.938Z,1259.00
2022-08-09T05:05:04.328Z,1278.00
2022-08-09T05:06:06.537Z,1305.00
2022-08-09T05:07:01.777Z,1351.00
2022-08-09T05:08:01.793Z,1383.00
2022-08-09T05:09:01.781Z,1411.00
2022-08-09T05:10:02.393Z,1461.00
2022-08-09T05:11:02.369Z,1467.00
2022-08-09T05:12:01.716Z,1500.00
2022-08-09T05:13:03.814Z,1528.00
2022-08-09T05:14:01.698Z,1566.00
2022-08-09T05:15:03.567Z,1629.00
2022-08-09T05:16:02.679Z,1688.00
2022-08-09T05:17:01.669Z,1760.00
2022-08-09T05:18:39.707Z,1829.00
2022-08-09T05:19:02.862Z,1904.00
2022-08-09T05:20:01.665Z,1971.00
2022-08-09T05:21:01.650Z,2037.00
2022-08-09T05:22:01.614Z,2039.00
2022-08-09T05:23:54.427Z,2299.00
2022-08-09T05:24:03.685Z,2278.00
2022-08-09T05:25:02.694Z,2375.00
2022-08-09T05:26:01.573Z,2471.00
2022-08-09T05:27:01.575Z,2583.00
2022-08-09T05:28:01.551Z,2653.00
2022-08-09T05:29:01.547Z,2758.00
2022-08-09T05:30:02.274Z,2820.00
2022-08-09T05:31:01.515Z,2689.00
2022-08-09T05:32:02.523Z,2932.00
2022-08-09T05:33:01.840Z,3167.00
2022-08-09T05:34:01.496Z,2921.00
2022-08-09T05:35:01.484Z,2913.00
2022-08-09T05:36:01.473Z,2971.00
2022-08-09T05:37:02.409Z,3058.00
2022-08-09T05:38:01.466Z,3154.00
2022-08-09T05:39:05.435Z,3263.00
2022-08-09T05:40:01.510Z,3333.00
2022-08-09T05:41:01.415Z,3375.00
2022-08-09T05:42:04.423Z,2761.00
2022-08-09T05:43:01.418Z,3834.00
2022-08-09T05:44:01.439Z,4329.00
2022-08-09T05:45:01.377Z,3525.00
2022-08-09T05:46:01.370Z,3373.00
2022-08-09T05:47:01.348Z,3757.00
2022-08-09T05:48:01.625Z,3240.00
2022-08-09T05:49:01.339Z,2924.00
2022-08-09T05:50:25.732Z,6185.00
2022-08-09T05:51:42.433Z,3942.00
2022-08-09T05:52:02.302Z,2534.00
2022-08-09T05:53:01.309Z,7406.00
2022-08-09T05:54:01.281Z,4414.00
2022-08-09T05:55:03.304Z,4520.00
2022-08-09T05:56:02.266Z,4512.00
2022-08-09T05:57:01.242Z,1903.00
2022-08-09T05:58:01.260Z,10286.00
2022-08-09T05:59:01.241Z,5827.00
2022-08-09T06:00:01.212Z,4657.00
2022-08-09T06:01:01.202Z,4644.00
2022-08-09T06:02:02.047Z,4671.00
2022-08-09T06:03:01.335Z,4683.00
2022-08-09T06:04:01.231Z,3806.00
2022-08-09T06:05:01.171Z,6160.00
2022-08-09T06:06:05.699Z,4651.00
2022-08-09T06:07:02.134Z,4733.00
2022-08-09T06:08:05.469Z,4677.00
2022-08-09T06:09:02.139Z,4681.00
2022-08-09T06:10:02.809Z,4687.00
2022-08-09T06:11:01.126Z,4742.00
2022-08-09T06:12:01.082Z,4095.00
2022-08-09T06:13:11.691Z,6065.00
2022-08-09T06:14:02.082Z,4962.00
2022-08-09T06:15:02.685Z,5112.00
2022-08-09T06:16:01.669Z,5161.00
2022-08-09T06:17:01.027Z,5226.00
2022-08-09T06:18:02.017Z,5312.00
2022-08-09T06:19:01.027Z,5314.00
2022-08-09T06:20:01.015Z,5359.00
2022-08-09T06:21:00.994Z,5374.00
2022-08-09T06:22:00.975Z,5389.00
2022-08-09T06:23:00.987Z,5456.00
2022-08-09T06:24:01.488Z,5660.00
2022-08-09T06:25:00.963Z,2730.00
2022-08-09T06:26:01.385Z,8522.00
2022-08-09T06:27:00.921Z,9554.00
2022-08-09T06:28:00.914Z,7705.00
2022-08-09T06:29:05.291Z,6737.00
2022-08-09T06:30:09.500Z,6395.00
2022-08-09T06:31:01.888Z,3903.00
2022-08-09T06:32:36.147Z,12177.00
2022-08-09T06:33:29.953Z,6956.00
2022-08-09T06:34:01.842Z,6852.00
2022-08-09T06:35:00.833Z,6532.00
2022-08-09T06:36:00.823Z,6276.00
2022-08-09T06:37:00.832Z,6600.00
2022-08-09T06:38:06.043Z,6320.00
2022-08-09T06:39:02.613Z,4743.00
2022-08-09T06:40:06.836Z,5254.00
2022-08-09T06:41:01.778Z,12200.00
2022-08-09T06:42:09.202Z,9362.00
2022-08-09T06:43:02.009Z,6590.00
2022-08-09T06:44:00.746Z,6420.00
2022-08-09T06:45:04.578Z,6337.00
2022-08-09T06:46:06.833Z,6339.00
2022-08-09T06:47:01.860Z,6279.00
2022-08-09T06:48:01.633Z,6216.00
2022-08-09T06:49:00.739Z,6504.00
2022-08-09T06:50:14.248Z,1135.00
2022-08-09T06:51:05.093Z,5978.00
2022-08-09T06:52:00.676Z,5984.00
2022-08-09T06:53:00.646Z,5943.00
2022-08-09T06:54:01.131Z,4926.00
2022-08-09T06:55:00.666Z,6485.00
2022-08-09T06:56:01.635Z,8693.00
2022-08-09T06:57:00.620Z,6169.00
2022-08-09T06:58:02.955Z,5828.00
2022-08-09T07:00:50.246Z,7372.00
2022-08-09T07:00:54.166Z,8472.00
2022-08-09T07:01:01.738Z,8485.00
2022-08-09T07:02:03.894Z,7367.00
2022-08-09T07:03:00.573Z,6429.00
2022-08-09T07:04:03.994Z,6122.00
2022-08-09T07:05:00.591Z,6638.00
2022-08-09T07:06:04.010Z,7628.00
2022-08-09T07:07:01.068Z,7640.00
2022-08-09T07:08:01.878Z,8181.00
2022-08-09T07:09:00.483Z,6729.00
2022-08-09T07:10:17.981Z,7557.00
2022-08-09T07:11:01.474Z,7572.00
2022-08-09T07:12:00.454Z,7023.00
2022-08-09T07:13:00.434Z,7429.00
2022-08-09T07:14:04.951Z,6966.00
2022-08-09T07:15:03.325Z,7149.00
2022-08-09T07:16:43.206Z,7424.00
2022-08-09T07:17:01.406Z,7164.00
2022-08-09T07:18:02.258Z,6875.00
2022-08-09T07:19:00.379Z,7243.00
2022-08-09T07:20:00.362Z,7101.00
2022-08-09T07:21:00.347Z,7437.00
2022-08-09T07:22:00.362Z,6814.00
2022-08-09T07:23:00.327Z,7863.00
2022-08-09T07:24:00.309Z,6587.00
2022-08-09T07:25:00.338Z,7723.00
2022-08-09T07:26:02.624Z,7309.00
2022-08-09T07:27:00.288Z,7712.00
2022-08-09T07:28:00.367Z,7404.00
2022-08-09T07:29:08.898Z,7723.00
2022-08-09T07:30:01.283Z,7740.00
2022-08-09T07:31:00.249Z,7608.00
2022-08-09T07:32:00.269Z,7381.00
2022-08-09T07:33:00.252Z,7306.00
2022-08-09T07:34:00.252Z,7230.00
2022-08-09T07:35:00.234Z,7057.00
2022-08-09T07:36:00.255Z,7035.00
2022-08-09T07:37:02.757Z,6349.00
2022-08-09T07:38:00.274Z,6971.00
2022-08-09T07:39:01.020Z,7383.00
2022-08-09T07:40:00.208Z,6418.00
2022-08-09T07:41:11.795Z,5474.00
2022-08-09T07:42:01.217Z,6644.00
2022-08-09T07:43:00.124Z,6475.00
2022-08-09T07:44:00.109Z,6437.00
2022-08-09T07:45:02.487Z,6385.00
2022-08-09T07:46:01.943Z,6749.00
2022-08-09T07:47:00.075Z,6539.00
2022-08-09T07:48:01.634Z,5466.00
2022-08-09T07:49:00.372Z,6145.00
2022-08-09T07:50:07.583Z,5759.00
2022-08-09T07:51:09.461Z,5492.00
2022-08-09T07:52:05.750Z,4713.00
2022-08-09T07:53:02.835Z,5687.00
2022-08-09T07:54:07.056Z,6019.00
2022-08-09T07:55:00.987Z,5990.00
2022-08-09T07:56:03.488Z,5986.00
2022-08-09T07:57:00.981Z,6338.00
2022-08-09T07:57:59.965Z,5949.00
2022-08-09T07:58:59.970Z,5731.00
2022-08-09T08:00:00.235Z,5078.00
2022-08-09T08:01:06.182Z,4836.00
2022-08-09T08:02:01.054Z,5079.00
2022-08-09T08:02:59.905Z,4688.00
2022-08-09T08:03:59.912Z,4566.00
2022-08-09T08:04:59.912Z,5195.00
2022-08-09T08:05:59.884Z,5628.00
2022-08-09T08:07:00.228Z,5639.00
2022-08-09T08:08:42.803Z,5689.00
2022-08-09T08:09:07.512Z,5743.00
2022-08-09T08:10:08.535Z,5676.00
2022-08-09T08:12:08.609Z,5655.00
2022-08-09T08:12:24.898Z,5694.00
2022-08-09T08:13:00.794Z,5682.00
2022-08-09T08:13:59.811Z,5678.00
2022-08-09T08:15:00.030Z,5635.00
2022-08-09T08:15:59.785Z,5647.00
2022-08-09T08:17:00.668Z,5662.00
2022-08-09T08:18:00.845Z,5698.00
2022-08-09T08:18:59.800Z,5701.00
2022-08-09T08:19:59.718Z,5708.00
2022-08-09T08:20:59.738Z,5711.00
2022-08-09T08:21:59.720Z,5711.00
2022-08-09T08:23:03.711Z,5752.00
2022-08-09T08:24:01.113Z,5821.00
2022-08-09T08:24:59.680Z,5799.00
2022-08-09T08:26:06.612Z,5826.00
2022-08-09T08:27:00.683Z,6150.00
2022-08-09T08:27:59.657Z,6123.00
2022-08-09T08:28:59.640Z,5406.00
2022-08-09T08:29:59.615Z,5082.00
2022-08-09T08:31:01.550Z,5916.00
2022-08-09T08:32:03.434Z,5955.00
2022-08-09T08:32:59.592Z,6440.00
2022-08-09T08:33:59.589Z,4363.00
2022-08-09T08:34:59.562Z,5960.00
2022-08-09T08:36:03.853Z,5736.00
2022-08-09T08:37:01.387Z,5869.00
2022-08-09T08:38:04.580Z,5898.00
2022-08-09T08:39:00.744Z,6039.00
2022-08-09T08:39:59.575Z,6797.00
2022-08-09T08:40:59.496Z,4943.00
2022-08-09T08:41:59.505Z,5891.00
2022-08-09T08:42:59.485Z,5961.00
2022-08-09T08:44:02.648Z,5959.00
2022-08-09T08:44:59.465Z,6056.00
2022-08-09T08:46:10.084Z,5997.00
2022-08-09T08:47:05.123Z,6003.00
2022-08-09T08:48:00.643Z,6038.00
2022-08-09T08:48:59.441Z,6037.00
2022-08-09T08:49:59.419Z,6032.00
2022-08-09T08:50:59.398Z,6088.00
2022-08-09T08:52:01.884Z,6392.00
2022-08-09T08:53:00.722Z,6069.00
2022-08-09T08:54:03.665Z,5261.00
2022-08-09T08:55:03.682Z,6106.00
2022-08-09T08:55:59.346Z,6162.00
2022-08-09T08:56:59.340Z,6171.00
2022-08-09T08:57:59.321Z,6153.00
2022-08-09T08:58:59.337Z,6128.00
2022-08-09T08:59:59.320Z,6128.00
2022-08-09T09:00:59.292Z,6185.00
2022-08-09T09:01:59.779Z,6231.00
2022-08-09T09:03:04.446Z,6155.00
2022-08-09T09:04:00.354Z,6245.00
2022-08-09T09:04:59.245Z,6278.00
2022-08-09T09:06:05.203Z,6261.00
2022-08-09T09:07:00.236Z,6208.00
2022-08-09T09:07:59.233Z,6263.00
2022-08-09T09:08:59.421Z,6270.00
2022-08-09T09:10:04.793Z,6320.00
2022-08-09T09:11:00.182Z,6380.00
2022-08-09T09:11:59.178Z,6335.00
2022-08-09T09:12:59.195Z,6357.00
2022-08-09T09:14:00.145Z,6408.00
2022-08-09T09:14:59.156Z,6293.00
2022-08-09T09:15:59.132Z,6378.00
2022-08-09T09:16:59.128Z,6406.00
2022-08-09T09:17:59.113Z,6384.00
2022-08-09T09:19:22.791Z,6382.00
2022-08-09T09:20:00.125Z,6480.00
2022-08-09T09:20:59.083Z,6383.00
2022-08-09T09:21:59.089Z,6461.00
2022-08-09T09:23:01.806Z,6449.00
2022-08-09T09:24:04.522Z,6433.00
2022-08-09T09:26:00.507Z,6472.00
2022-08-09T09:26:04.788Z,6431.00
2022-08-09T09:27:00.011Z,6468.00
2022-08-09T09:28:03.923Z,6432.00
2022-08-09T09:29:03.892Z,6482.00
2022-08-09T09:30:13.893Z,6528.00
2022-08-09T09:30:59.992Z,6573.00
2022-08-09T09:32:06.475Z,6618.00
2022-08-09T09:32:59.958Z,6637.00
2022-08-09T09:33:58.954Z,6638.00
2022-08-09T09:34:58.960Z,6685.00
2022-08-09T09:36:02.104Z,6671.00
2022-08-09T09:36:58.900Z,6689.00
2022-08-09T09:37:58.904Z,6723.00
2022-08-09T09:38:58.903Z,6643.00
2022-08-09T09:39:59.650Z,6697.00
2022-08-09T09:40:58.871Z,6685.00
2022-08-09T09:41:58.887Z,6695.00
2022-08-09T09:42:58.878Z,6715.00
2022-08-09T09:44:12.793Z,6748.00
2022-08-09T09:44:59.835Z,6794.00
2022-08-09T09:46:41.783Z,6796.00
2022-08-09T09:46:59.821Z,6796.00
2022-08-09T09:47:59.735Z,6858.00
2022-08-09T09:48:58.776Z,6833.00
2022-08-09T09:50:15.293Z,6890.00
2022-08-09T09:50:59.785Z,6902.00
2022-08-09T09:51:58.748Z,6921.00
2022-08-09T09:52:58.942Z,6896.00
2022-08-09T09:54:01.648Z,6917.00
2022-08-09T09:54:59.718Z,6944.00
2022-08-09T09:56:04.238Z,6895.00
2022-08-09T09:58:00.598Z,6961.00
2022-08-09T09:58:03.081Z,6987.00
2022-08-09T09:58:58.688Z,6975.00
2022-08-09T09:59:58.671Z,6983.00
2022-08-09T10:01:00.087Z,6991.00
2022-08-09T10:01:58.655Z,7033.00
2022-08-09T10:02:58.675Z,6939.00
2022-08-09T10:04:00.107Z,7059.00
2022-08-09T10:04:58.657Z,7054.00
2022-08-09T10:06:03.598Z,7057.00
2022-08-09T10:07:03.259Z,7100.00
2022-08-09T10:08:11.070Z,7241.00
2022-08-09T10:08:59.592Z,6958.00
2022-08-09T10:09:58.584Z,7025.00
2022-08-09T10:10:58.604Z,7061.00
2022-08-09T10:12:07.584Z,7155.00
2022-08-09T10:12:59.742Z,7192.00
2022-08-09T10:13:58.535Z,7174.00
2022-08-09T10:14:58.531Z,7196.00
2022-08-09T10:16:55.821Z,7271.00
2022-08-09T10:17:24.143Z,7071.00
2022-08-09T10:17:59.478Z,7272.00
2022-08-09T10:18:59.929Z,7098.00
2022-08-09T10:19:58.801Z,7355.00
2022-08-09T10:20:58.480Z,7133.00
2022-08-09T10:21:58.449Z,7378.00
2022-08-09T10:23:00.663Z,7290.00
2022-08-09T10:23:58.421Z,7341.00
2022-08-09T10:24:58.399Z,7404.00
2022-08-09T10:26:06.553Z,7335.00
2022-08-09T10:26:59.388Z,7390.00
2022-08-09T10:27:58.391Z,7466.00
2022-08-09T10:29:23.274Z,7918.00
2022-08-09T10:30:49.412Z,8307.00
2022-08-09T10:32:35.637Z,4386.00
2022-08-09T10:32:59.322Z,4051.00
2022-08-09T10:34:09.544Z,3848.00
2022-08-09T10:34:59.333Z,1553.00
2022-08-09T10:36:01.249Z,8153.00
2022-08-09T10:36:58.285Z,7674.00
2022-08-09T10:37:58.266Z,7918.00
2022-08-09T10:39:00.371Z,8190.00
2022-08-09T10:39:58.324Z,7791.00
2022-08-09T10:40:58.275Z,8336.00
2022-08-09T10:41:58.215Z,8473.00
2022-08-09T10:42:58.240Z,8409.00
2022-08-09T10:43:59.211Z,8320.00
2022-08-09T10:44:58.206Z,8382.00
2022-08-09T10:45:59.927Z,8355.00
2022-08-09T10:47:01.022Z,8446.00
2022-08-09T10:48:29.371Z,8597.00
2022-08-09T10:48:59.148Z,8682.00
2022-08-09T10:49:58.206Z,8743.00
2022-08-09T10:50:58.137Z,8914.00
2022-08-09T10:51:58.419Z,8818.00
2022-08-09T10:52:58.108Z,8736.00
2022-08-09T10:53:58.099Z,8522.00
2022-08-09T10:54:58.100Z,8261.00
2022-08-09T10:56:00.375Z,8375.00
2022-08-09T10:56:58.070Z,8384.00
2022-08-09T10:58:00.103Z,7693.00
2022-08-09T10:58:58.052Z,4253.00
2022-08-09T11:00:01.434Z,4277.00
2022-08-09T11:03:02.889Z,4248.00
2022-08-09T11:03:11.853Z,4776.00
2022-08-09T11:03:19.024Z,4742.00
2022-08-09T11:04:03.645Z,4742.00
2022-08-09T11:04:59.054Z,4716.00
2022-08-09T11:05:59.967Z,1622.00
2022-08-09T11:06:58.025Z,5899.00
2022-08-09T11:07:59.422Z,6967.00
2022-08-09T11:08:59.556Z,8473.00
2022-08-09T11:09:59.755Z,9113.00
2022-08-09T11:11:00.563Z,8026.00
2022-08-09T11:11:57.905Z,10899.00
2022-08-09T11:12:57.906Z,7252.00
2022-08-09T11:13:57.924Z,7163.00
2022-08-09T11:14:57.892Z,2055.00
2022-08-09T11:16:04.679Z,11059.00
2022-08-09T11:16:58.868Z,4879.00
2022-08-09T11:18:03.640Z,4427.00
2022-08-09T11:18:58.840Z,9890.00
2022-08-09T11:20:11.461Z,9481.00
2022-08-09T11:20:58.818Z,9455.00
2022-08-09T11:22:10.398Z,9676.00
2022-08-09T11:22:58.809Z,9994.00
2022-08-09T11:23:57.813Z,9886.00
2022-08-09T11:24:57.839Z,9997.00
2022-08-09T11:25:57.790Z,9971.00
2022-08-09T11:26:57.770Z,9896.00
2022-08-09T11:28:03.715Z,9703.00
2022-08-09T11:28:58.734Z,9621.00
2022-08-09T11:30:04.821Z,9531.00
2022-08-09T11:30:58.740Z,9778.00
2022-08-09T11:31:57.707Z,9710.00
2022-08-09T11:32:57.706Z,9852.00
2022-08-09T11:33:57.683Z,9910.00
2022-08-09T11:34:57.665Z,9987.00
2022-08-09T11:35:57.705Z,10256.00
2022-08-09T11:36:57.658Z,11680.00
2022-08-09T11:37:57.643Z,6487.00
2022-08-09T11:38:57.659Z,6492.00
2022-08-09T11:39:57.639Z,6434.00
2022-08-09T11:40:57.614Z,5826.00
2022-08-09T11:41:58.956Z,5743.00
2022-08-09T11:42:57.588Z,5829.00
2022-08-09T11:43:57.581Z,5763.00
2022-08-09T11:44:57.586Z,5749.00
2022-08-09T11:45:57.688Z,5808.00
2022-08-09T11:46:57.576Z,5868.00
2022-08-09T11:48:02.748Z,5949.00
2022-08-09T11:48:58.546Z,5986.00
2022-08-09T11:50:56.198Z,5947.00
2022-08-09T11:52:49.085Z,5842.00
2022-08-09T11:53:03.027Z,5740.00
2022-08-09T11:53:16.623Z,5727.00
2022-08-09T11:54:04.206Z,5649.00
2022-08-09T11:54:58.468Z,5591.00
2022-08-09T11:56:02.202Z,5618.00
2022-08-09T11:56:58.454Z,5679.00
2022-08-09T11:58:02.380Z,5596.00
2022-08-09T11:58:58.432Z,5541.00
2022-08-09T11:59:57.432Z,2555.00
2022-08-09T12:00:57.393Z,10764.00
2022-08-09T12:02:15.909Z,10635.00
2022-08-09T12:02:58.479Z,10689.00
2022-08-09T12:03:58.192Z,12823.00
2022-08-09T12:04:59.162Z,11565.00
2022-08-09T12:05:57.350Z,5343.00
2022-08-09T12:06:57.835Z,7845.00
2022-08-09T12:07:57.338Z,5753.00
2022-08-09T12:08:57.411Z,9542.00
2022-08-09T12:09:57.308Z,11229.00
2022-08-09T12:10:58.316Z,9430.00
2022-08-09T12:12:02.683Z,10339.00
2022-08-09T12:12:58.287Z,11920.00
2022-08-09T12:14:09.408Z,9671.00
2022-08-09T12:15:04.253Z,7950.00
2022-08-09T12:15:58.266Z,11089.00
2022-08-09T12:16:58.311Z,9867.00
2022-08-09T12:17:57.219Z,10437.00
2022-08-09T12:18:57.214Z,10490.00
2022-08-09T12:19:59.444Z,10534.00
2022-08-09T12:20:57.227Z,12386.00
2022-08-09T12:21:57.184Z,8117.00
2022-08-09T12:22:57.213Z,5720.00
2022-08-09T12:24:09.292Z,5530.00
2022-08-09T12:24:58.157Z,5150.00
2022-08-09T12:25:57.142Z,5662.00
2022-08-09T12:29:12.951Z,5908.00
2022-08-09T12:29:13.894Z,5236.00